| time (UTC) | temp F | wind direction | speed MPH | gust MPH | rain 1hr in | rain 24hr in | rain mn in | humidity % | barometer mb |
| 20260901014520 | 78 | 63 | 0.0 | 0.0 | 0.00 | 0.44 | 0.44 | 81 | 1018.4 |
| 20260901014021 | 78 | 131 | 0.0 | 0.0 | 0.00 | 0.44 | 0.44 | 82 | 1018.5 |
| 20260901013520 | 78 | 98 | 0.0 | 0.0 | 0.00 | 0.44 | 0.44 | 82 | 1018.7 |
| 20260901013019 | 78 | 113 | 0.0 | 0.0 | 0.00 | 0.44 | 0.44 | 83 | 1018.6 |
| 20260901012518 | 78 | 142 | 0.0 | 0.0 | 0.00 | 0.44 | 0.44 | 83 | 1018.7 |
| 20260901012020 | 78 | 161 | 0.0 | 0.0 | 0.00 | 0.44 | 0.44 | 83 | 1018.6 |
| 20260901011527 | 78 | 160 | 0.0 | 0.0 | 0.00 | 0.44 | 0.44 | 83 | 1018.6 |
| 20260901011017 | 78 | 167 | 0.0 | 0.0 | 0.00 | 0.44 | 0.44 | 83 | 1018.6 |
| 20260901010519 | 78 | 174 | 0.0 | 0.0 | 0.00 | 0.44 | 0.44 | 83 | 1018.7 |
| 20260901010017 | 78 | 179 | 0.0 | 0.0 | 0.00 | 0.44 | 0.44 | 83 | 1018.6 |
| 20260901005519 | 78 | 131 | 0.0 | 0.0 | 0.00 | 0.44 | 0.44 | 83 | 1018.5 |
| 20260901005013 | 78 | 203 | 0.0 | 0.0 | 0.00 | 0.44 | 0.44 | 83 | 1018.4 |
| 20260901004513 | 78 | 130 | 0.0 | 0.0 | 0.00 | 0.44 | 0.44 | 83 | 1018.4 |
| 20260901004012 | 78 | 141 | 0.0 | 0.0 | 0.00 | 0.44 | 0.44 | 83 | 1018.2 |
| 20260901003513 | 77 | 131 | 0.0 | 0.0 | 0.00 | 0.44 | 0.44 | 83 | 1018.1 |
| 20260901003010 | 78 | 132 | 0.0 | 0.0 | 0.00 | 0.44 | 0.44 | 83 | 1017.9 |
| 20260901002510 | 77 | 185 | 0.0 | 0.0 | 0.00 | 0.44 | 0.44 | 83 | 1017.9 |
| 20260901002011 | 77 | 127 | 0.0 | 0.0 | 0.00 | 0.44 | 0.44 | 83 | 1017.8 |
| 20260901001509 | 77 | 157 | 0.0 | 0.0 | 0.00 | 0.44 | 0.44 | 83 | 1017.8 |
| 20260901001008 | 77 | 148 | 0.0 | 0.0 | 0.00 | 0.44 | 0.44 | 83 | 1017.7 |
| 20260901000508 | 77 | 138 | 0.0 | 0.0 | 0.00 | 0.44 | 0.44 | 82 | 1017.7 |
| 20260901000008 | 77 | 145 | 0.0 | 0.0 | 0.00 | 0.44 | 0.44 | 82 | 1017.7 |
| 20260831235507 | 78 | 134 | 0.0 | 0.0 | 0.00 | 0.44 | 0.44 | 82 | 1017.7 |
| 20260831235007 | 78 | 136 | 0.0 | 0.0 | 0.00 | 0.44 | 0.44 | 82 | 1017.7 |
| 20260831234507 | 78 | 164 | 0.0 | 0.0 | 0.00 | 0.44 | 0.44 | 82 | 1017.6 |
| 20260831234005 | 78 | 146 | 0.0 | 0.0 | 0.00 | 0.44 | 0.44 | 82 | 1017.6 |
| 20260831233505 | 78 | 160 | 0.0 | 0.0 | 0.00 | 0.44 | 0.44 | 82 | 1017.5 |
| 20260831233008 | 78 | 158 | 0.0 | 0.0 | 0.00 | 0.44 | 0.44 | 82 | 1017.5 |
| 20260831232504 | 78 | 142 | 0.0 | 0.0 | 0.00 | 0.44 | 0.44 | 82 | 1017.4 |
| 20260831232004 | 78 | 122 | 0.0 | 0.0 | 0.00 | 0.44 | 0.44 | 82 | 1017.3 |
| 20260831231504 | 78 | 172 | 0.0 | 0.0 | 0.00 | 0.44 | 0.44 | 82 | 1017.3 |
| 20260831231006 | 78 | 143 | 0.0 | 0.0 | 0.00 | 0.44 | 0.44 | 82 | 1017.2 |
| 20260831230503 | 78 | 146 | 0.0 | 0.0 | 0.00 | 0.44 | 0.44 | 82 | 1017.1 |
| 20260831230005 | 78 | 158 | 0.0 | 0.0 | 0.00 | 0.44 | 0.44 | 82 | 1017.2 |
| 20260831225503 | 78 | 158 | 0.0 | 0.0 | 0.00 | 0.44 | 0.44 | 82 | 1017.0 |
| 20260831225001 | 78 | 155 | 0.0 | 0.0 | 0.00 | 0.44 | 0.44 | 82 | 1017.0 |
| 20260831224501 | 78 | 155 | 0.0 | 0.0 | 0.01 | 0.44 | 0.44 | 82 | 1017.0 |
| 20260831224002 | 78 | 156 | 0.0 | 0.0 | 0.02 | 0.44 | 0.44 | 82 | 1017.0 |
| 20260831223601 | 78 | 155 | 0.0 | 0.0 | 0.03 | 0.44 | 0.44 | 82 | 1017.1 |
| 20260831223101 | 78 | 219 | 0.0 | 0.0 | 0.05 | 0.44 | 0.44 | 82 | 1016.9 |
| 20260831223002 | 78 | 217 | 0.0 | 0.0 | 0.05 | 0.44 | 0.44 | 82 | 1017.0 |
| 20260831222600 | 77 | 207 | 0.0 | 0.0 | 0.05 | 0.44 | 0.44 | 82 | 1017.0 |
| 20260831222059 | 77 | 205 | 0.0 | 0.0 | 0.07 | 0.44 | 0.44 | 81 | 1016.9 |
| 20260831221603 | 78 | 207 | 0.0 | 0.0 | 0.07 | 0.44 | 0.44 | 81 | 1016.8 |
| 20260831221058 | 78 | 207 | 0.0 | 0.0 | 0.07 | 0.44 | 0.44 | 81 | 1016.9 |
| 20260831220558 | 78 | 185 | 0.0 | 0.0 | 0.07 | 0.44 | 0.44 | 81 | 1016.8 |
| 20260831220113 | 78 | 184 | 0.0 | 0.0 | 0.07 | 0.44 | 0.44 | 81 | 1016.9 |
| 20260831215601 | 78 | 212 | 0.0 | 0.0 | 0.07 | 0.44 | 0.44 | 81 | 1016.7 |
| 20260831215059 | 78 | 117 | 0.0 | 0.0 | 0.07 | 0.44 | 0.44 | 81 | 1016.8 |
| 20260831214557 | 77 | 79 | 0.0 | 0.0 | 0.07 | 0.43 | 0.43 | 81 | 1016.8 |
| 20260831214056 | 77 | 74 | 0.0 | 0.0 | 0.06 | 0.42 | 0.42 | 81 | 1016.8 |
| 20260831213556 | 77 | 29 | 0.0 | 1.0 | 0.06 | 0.41 | 0.41 | 81 | 1016.8 |
| 20260831213055 | 77 | 121 | 0.0 | 1.0 | 0.05 | 0.39 | 0.39 | 81 | 1016.9 |
| 20260831212557 | 77 | 72 | 0.0 | 1.0 | 0.04 | 0.38 | 0.38 | 82 | 1016.9 |
| 20260831212055 | 76 | 84 | 0.0 | 2.0 | 0.06 | 0.37 | 0.37 | 82 | 1016.8 |
| 20260831211607 | 77 | 81 | 0.0 | 0.0 | 0.09 | 0.37 | 0.37 | 82 | 1017.0 |
| 20260831211052 | 77 | 72 | 0.0 | 0.0 | 0.09 | 0.37 | 0.37 | 82 | 1017.0 |
| 20260831210557 | 77 | 318 | 0.0 | 0.0 | 0.11 | 0.37 | 0.37 | 82 | 1016.9 |
| 20260831210055 | 77 | 338 | 0.0 | 0.0 | 0.14 | 0.37 | 0.37 | 82 | 1016.9 |
| 20260831205552 | 77 | 338 | 0.0 | 0.0 | 0.15 | 0.37 | 0.37 | 82 | 1016.9 |
| 20260831205051 | 77 | 329 | 0.0 | 0.0 | 0.15 | 0.37 | 0.37 | 82 | 1016.9 |
| 20260831204551 | 77 | 298 | 0.0 | 0.0 | 0.16 | 0.36 | 0.36 | 82 | 1016.9 |
| 20260831204051 | 77 | 285 | 0.0 | 0.0 | 0.18 | 0.36 | 0.36 | 82 | 1017.0 |
| 20260831203550 | 77 | 352 | 0.0 | 0.0 | 0.22 | 0.35 | 0.35 | 82 | 1017.0 |
| 20260831203052 | 77 | 327 | 0.0 | 0.0 | 0.26 | 0.34 | 0.34 | 82 | 1017.0 |
| 20260831202550 | 78 | 298 | 0.0 | 0.0 | 0.30 | 0.34 | 0.34 | 82 | 1017.2 |
| 20260831202050 | 78 | 314 | 0.0 | 0.0 | 0.27 | 0.30 | 0.30 | 82 | 1017.2 |
| 20260831201555 | 78 | 283 | 0.0 | 0.0 | 0.25 | 0.28 | 0.28 | 82 | 1017.2 |
| 20260831201053 | 78 | 328 | 0.0 | 0.0 | 0.25 | 0.28 | 0.28 | 81 | 1017.0 |
| 20260831200550 | 78 | 282 | 0.0 | 0.0 | 0.22 | 0.25 | 0.25 | 81 | 1017.1 |
| 20260831200048 | 78 | 326 | 0.0 | 0.0 | 0.20 | 0.23 | 0.23 | 81 | 1017.1 |
| 20260831195551 | 78 | 20 | 0.0 | 0.0 | 0.19 | 0.22 | 0.22 | 81 | 1017.1 |
| 20260831195047 | 78 | 257 | 0.0 | 0.0 | 0.19 | 0.22 | 0.22 | 80 | 1017.1 |
| 20260831194626 | 78 | 237 | 0.0 | 0.0 | 0.17 | 0.20 | 0.20 | 80 | 1017.0 |
| 20260831194049 | 78 | 234 | 0.0 | 0.0 | 0.15 | 0.18 | 0.18 | 80 | 1016.9 |
| 20260831193548 | 79 | 218 | 0.0 | 0.0 | 0.10 | 0.13 | 0.13 | 79 | 1016.9 |
| 20260831193049 | 79 | 210 | 0.0 | 0.0 | 0.05 | 0.08 | 0.08 | 79 | 1017.0 |
| 20260831192544 | 80 | 155 | 0.0 | 0.0 | 0.01 | 0.04 | 0.04 | 78 | 1016.9 |
| 20260831192043 | 81 | 125 | 0.0 | 2.0 | 0.00 | 0.03 | 0.03 | 77 | 1016.9 |
| 20260831191542 | 82 | 141 | 0.0 | 2.0 | 0.00 | 0.03 | 0.03 | 75 | 1016.8 |
| 20260831191040 | 83 | 141 | 0.0 | 4.0 | 0.00 | 0.03 | 0.03 | 74 | 1016.6 |
| 20260831190540 | 84 | 127 | 0.0 | 4.0 | 0.00 | 0.03 | 0.03 | 73 | 1016.5 |
| 20260831190044 | 85 | 122 | 0.0 | 0.0 | 0.00 | 0.03 | 0.03 | 74 | 1016.4 |
| 20260831185538 | 85 | 148 | 0.0 | 0.0 | 0.00 | 0.03 | 0.03 | 74 | 1016.5 |
| 20260831185038 | 85 | 167 | 0.0 | 0.0 | 0.00 | 0.03 | 0.03 | 73 | 1016.6 |
| 20260831184602 | 86 | 162 | 0.0 | 0.0 | 0.00 | 0.03 | 0.03 | 73 | 1016.6 |
| 20260831184035 | 86 | 144 | 0.0 | 0.0 | 0.00 | 0.03 | 0.03 | 73 | 1016.5 |
| 20260831183537 | 86 | 116 | 0.0 | 0.0 | 0.00 | 0.03 | 0.03 | 73 | 1016.6 |
| 20260831183039 | 86 | 152 | 0.0 | 0.0 | 0.00 | 0.03 | 0.03 | 73 | 1016.7 |
| 20260831182534 | 86 | 127 | 0.0 | 0.0 | 0.00 | 0.03 | 0.03 | 72 | 1016.9 |
| 20260831182036 | 86 | 142 | 0.0 | 0.0 | 0.00 | 0.03 | 0.03 | 74 | 1017.0 |
| 20260831181532 | 86 | 160 | 0.0 | 0.0 | 0.00 | 0.03 | 0.03 | 73 | 1017.1 |
| 20260831181031 | 86 | 125 | 0.0 | 1.0 | 0.00 | 0.03 | 0.03 | 73 | 1017.0 |
| 20260831180529 | 86 | 124 | 0.0 | 1.0 | 0.00 | 0.03 | 0.03 | 73 | 1017.1 |
| 20260831180033 | 87 | 153 | 0.0 | 4.0 | 0.00 | 0.03 | 0.03 | 72 | 1017.0 |
| 20260831175529 | 87 | 219 | 0.0 | 4.0 | 0.00 | 0.03 | 0.03 | 71 | 1017.2 |
| 20260831175024 | 87 | 149 | 0.0 | 0.0 | 0.00 | 0.03 | 0.03 | 72 | 1017.2 |
| 20260831174525 | 86 | 117 | 0.0 | 0.0 | 0.00 | 0.03 | 0.03 | 72 | 1017.2 |
| 20260831174024 | 86 | 79 | 0.0 | 0.0 | 0.00 | 0.03 | 0.03 | 72 | 1017.2 |
| 20260831173526 | 86 | 167 | 0.0 | 6.0 | 0.00 | 0.03 | 0.03 | 71 | 1017.3 |
| 20260831173021 | 86 | 109 | 0.0 | 6.0 | 0.00 | 0.03 | 0.03 | 71 | 1017.4 |
| 20260831172519 | 87 | 124 | 0.0 | 0.0 | 0.00 | 0.03 | 0.03 | 73 | 1017.4 |
| 20260831172019 | 86 | 157 | 0.0 | 2.0 | 0.00 | 0.03 | 0.03 | 72 | 1017.6 |
| 20260831171518 | 86 | 188 | 0.0 | 0.0 | 0.00 | 0.03 | 0.03 | 72 | 1017.7 |
| 20260831171016 | 86 | 174 | 0.0 | 0.0 | 0.00 | 0.03 | 0.03 | 72 | 1017.6 |
| 20260831170516 | 86 | 103 | 0.0 | 1.0 | 0.00 | 0.03 | 0.03 | 72 | 1017.6 |
| 20260831170015 | 86 | 146 | 0.0 | 0.0 | 0.00 | 0.03 | 0.03 | 73 | 1017.6 |
| 20260831165516 | 86 | 121 | 0.0 | 0.0 | 0.00 | 0.18 | 0.03 | 73 | 1017.6 |
| 20260831165012 | 86 | 117 | 0.0 | 5.0 | 0.00 | 0.18 | 0.03 | 73 | 1017.7 |
| 20260831164511 | 86 | 106 | 0.0 | 5.0 | 0.00 | 0.18 | 0.03 | 73 | 1017.8 |
| 20260831164014 | 86 | 108 | 0.0 | 1.0 | 0.00 | 0.18 | 0.03 | 73 | 1017.8 |
| 20260831163509 | 85 | 151 | 0.0 | 1.0 | 0.00 | 0.18 | 0.03 | 74 | 1017.9 |
| 20260831163012 | 85 | 120 | 0.0 | 1.0 | 0.00 | 0.18 | 0.03 | 73 | 1017.9 |
| 20260831162508 | 85 | 176 | 0.0 | 1.0 | 0.00 | 0.18 | 0.03 | 74 | 1017.9 |
| 20260831162007 | 85 | 130 | 0.0 | 0.0 | 0.00 | 0.18 | 0.03 | 73 | 1017.9 |
| 20260831161512 | 85 | 153 | 0.0 | 0.0 | 0.00 | 0.18 | 0.03 | 74 | 1018.0 |
| 20260831161005 | 85 | 173 | 0.0 | 0.0 | 0.00 | 0.18 | 0.03 | 73 | 1017.8 |
| 20260831160504 | 85 | 181 | 0.0 | 0.0 | 0.00 | 0.18 | 0.03 | 74 | 1017.9 |
| 20260831160007 | 86 | 156 | 0.0 | 0.0 | 0.00 | 0.18 | 0.03 | 73 | 1017.9 |
| 20260831155504 | 86 | 176 | 0.0 | 0.0 | 0.00 | 0.21 | 0.03 | 73 | 1017.9 |
| 20260831155003 | 85 | 96 | 0.0 | 0.0 | 0.00 | 0.21 | 0.03 | 74 | 1017.9 |
| 20260831154505 | 85 | 203 | 0.0 | 0.0 | 0.00 | 0.21 | 0.03 | 74 | 1017.8 |
| 20260831154001 | 85 | 117 | 0.0 | 0.0 | 0.00 | 0.21 | 0.03 | 74 | 1017.8 |
| 20260831153559 | 85 | 110 | 0.0 | 2.0 | 0.00 | 0.21 | 0.03 | 73 | 1017.8 |
| 20260831153059 | 84 | 191 | 0.0 | 4.0 | 0.00 | 0.21 | 0.03 | 74 | 1017.7 |
| 20260831152557 | 85 | 109 | 0.0 | 0.0 | 0.00 | 0.21 | 0.03 | 74 | 1017.8 |
| 20260831152057 | 85 | 119 | 0.0 | 0.0 | 0.00 | 0.21 | 0.03 | 74 | 1017.8 |
| 20260831151603 | 85 | 142 | 0.0 | 0.0 | 0.00 | 0.21 | 0.03 | 73 | 1017.7 |
| 20260831151056 | 85 | 147 | 0.0 | 0.0 | 0.00 | 0.21 | 0.03 | 74 | 1017.7 |
| 20260831150657 | 85 | 122 | 0.0 | 4.0 | 0.00 | 0.21 | 0.03 | 73 | 1017.7 |
| 20260831150053 | 86 | 129 | 0.0 | 4.0 | 0.00 | 0.21 | 0.03 | 73 | 1017.6 |
| 20260831145551 | 85 | 173 | 0.0 | 0.0 | 0.00 | 0.23 | 0.03 | 73 | 1017.6 |
| 20260831145052 | 85 | 188 | 0.0 | 5.0 | 0.00 | 0.23 | 0.03 | 73 | 1017.6 |
| 20260831144606 | 85 | 114 | 0.0 | 0.0 | 0.00 | 0.23 | 0.03 | 73 | 1017.6 |
| 20260831144050 | 85 | 147 | 0.0 | 0.0 | 0.00 | 0.23 | 0.03 | 74 | 1017.7 |
| 20260831143548 | 84 | 145 | 0.0 | 0.0 | 0.00 | 0.23 | 0.03 | 74 | 1017.6 |
| 20260831143048 | 84 | 120 | 0.0 | 2.0 | 0.00 | 0.23 | 0.03 | 74 | 1017.5 |
| 20260831142545 | 83 | 129 | 0.0 | 2.0 | 0.00 | 0.23 | 0.03 | 74 | 1017.6 |
| 20260831142044 | 83 | 145 | 0.0 | 2.0 | 0.00 | 0.23 | 0.03 | 75 | 1017.5 |
| 20260831141543 | 83 | 179 | 0.0 | 0.0 | 0.00 | 0.23 | 0.03 | 76 | 1017.5 |
| 20260831141040 | 82 | 157 | 0.0 | 0.0 | 0.00 | 0.23 | 0.03 | 77 | 1017.5 |
| 20260831140541 | 82 | 120 | 0.0 | 4.0 | 0.00 | 0.23 | 0.03 | 77 | 1017.5 |
| 20260831140038 | 82 | 146 | 0.0 | 4.0 | 0.00 | 0.23 | 0.03 | 77 | 1017.4 |
| 20260831135537 | 82 | 106 | 0.0 | 3.0 | 0.00 | 0.24 | 0.03 | 77 | 1017.5 |
| 20260831135036 | 82 | 159 | 0.0 | 3.0 | 0.00 | 0.24 | 0.03 | 77 | 1017.4 |
| 20260831134536 | 82 | 120 | 0.0 | 4.0 | 0.00 | 0.24 | 0.03 | 77 | 1017.4 |
| 20260831134134 | 82 | 150 | 0.0 | 6.0 | 0.00 | 0.24 | 0.03 | 77 | 1017.3 |
| 20260831133537 | 82 | 116 | 0.0 | 6.0 | 0.00 | 0.24 | 0.03 | 77 | 1017.2 |
| 20260831133033 | 82 | 164 | 0.0 | 1.0 | 0.00 | 0.24 | 0.03 | 77 | 1017.2 |
| 20260831132534 | 81 | 119 | 0.0 | 4.0 | 0.00 | 0.24 | 0.03 | 77 | 1017.1 |
| 20260831132032 | 81 | 122 | 0.0 | 5.0 | 0.00 | 0.24 | 0.03 | 77 | 1017.0 |
| 20260831131530 | 82 | 112 | 0.0 | 5.0 | 0.00 | 0.24 | 0.03 | 77 | 1016.9 |
| 20260831131031 | 81 | 158 | 0.0 | 1.0 | 0.00 | 0.24 | 0.03 | 78 | 1016.9 |
| 20260831130529 | 81 | 106 | 0.0 | 6.0 | 0.00 | 0.24 | 0.03 | 78 | 1017.0 |
| 20260831130028 | 81 | 139 | 1.0 | 6.0 | 0.00 | 0.24 | 0.03 | 77 | 1016.9 |
| 20260831125527 | 81 | 81 | 0.0 | 5.0 | 0.00 | 0.26 | 0.03 | 78 | 1017.0 |
| 20260831125025 | 81 | 133 | 0.0 | 8.0 | 0.00 | 0.26 | 0.03 | 78 | 1016.9 |
| 20260831124524 | 81 | 114 | 1.0 | 8.0 | 0.00 | 0.26 | 0.03 | 78 | 1016.9 |
| 20260831124023 | 80 | 122 | 2.0 | 9.0 | 0.00 | 0.26 | 0.03 | 78 | 1016.8 |
| 20260831123522 | 80 | 153 | 1.0 | 6.0 | 0.00 | 0.26 | 0.03 | 79 | 1016.8 |
| 20260831123022 | 80 | 148 | 0.0 | 5.0 | 0.00 | 0.26 | 0.03 | 79 | 1016.7 |
| 20260831122521 | 80 | 167 | 2.0 | 5.0 | 0.00 | 0.26 | 0.03 | 79 | 1016.5 |
| 20260831122022 | 81 | 203 | 0.0 | 4.0 | 0.00 | 0.26 | 0.03 | 79 | 1016.5 |
| 20260831121531 | 80 | 119 | 0.0 | 0.0 | 0.00 | 0.26 | 0.03 | 79 | 1016.5 |
| 20260831121019 | 80 | 167 | 0.0 | 1.0 | 0.01 | 0.26 | 0.03 | 79 | 1016.4 |
| 20260831120519 | 80 | 176 | 0.0 | 7.0 | 0.01 | 0.26 | 0.03 | 79 | 1016.4 |
| 20260831120021 | 80 | 125 | 2.0 | 7.0 | 0.01 | 0.26 | 0.03 | 79 | 1016.5 |
| 20260831115515 | 80 | 135 | 2.0 | 8.0 | 0.01 | 0.36 | 0.03 | 79 | 1016.6 |
| 20260831115013 | 80 | 118 | 2.0 | 8.0 | 0.01 | 0.36 | 0.03 | 79 | 1016.6 |
| 20260831114513 | 80 | 110 | 3.0 | 9.0 | 0.01 | 0.36 | 0.03 | 79 | 1016.6 |
| 20260831114012 | 80 | 117 | 3.0 | 12.0 | 0.01 | 0.36 | 0.03 | 80 | 1016.5 |
| 20260831113511 | 79 | 95 | 3.0 | 12.0 | 0.01 | 0.36 | 0.03 | 80 | 1016.5 |
| 20260831113010 | 79 | 107 | 3.0 | 12.0 | 0.01 | 0.36 | 0.03 | 80 | 1016.4 |
| 20260831112509 | 79 | 128 | 1.0 | 6.0 | 0.01 | 0.36 | 0.03 | 80 | 1016.4 |
| 20260831112107 | 79 | 153 | 1.0 | 9.0 | 0.01 | 0.36 | 0.03 | 80 | 1016.3 |
| 20260831111505 | 79 | 153 | 0.0 | 9.0 | 0.01 | 0.36 | 0.03 | 80 | 1016.3 |
| 20260831111005 | 79 | 77 | 4.0 | 9.0 | 0.00 | 0.35 | 0.02 | 80 | 1016.2 |
| 20260831110507 | 78 | 105 | 4.0 | 11.0 | 0.00 | 0.35 | 0.02 | 80 | 1016.2 |
| 20260831110003 | 78 | 71 | 5.0 | 11.0 | 0.00 | 0.35 | 0.02 | 80 | 1016.1 |
| 20260831105501 | 0 | 0.0 | 0.0 | 0.00 | 0.35 | 0.02 | 1016.2 | ||
| 20260831105100 | 0 | 0.0 | 0.0 | 0.00 | 0.35 | 0.02 | 1016.2 | ||
| 20260831104558 | 0 | 0.0 | 0.0 | 0.00 | 0.35 | 0.02 | 1016.2 | ||
| 20260831104055 | 0 | 0.0 | 0.0 | 0.00 | 0.35 | 0.02 | 1016.3 | ||
| 20260831103553 | 0 | 0.0 | 0.0 | 0.00 | 0.35 | 0.02 | 1016.1 | ||
| 20260831103059 | 0 | 0.0 | 0.0 | 0.00 | 0.35 | 0.02 | 1016.1 | ||
| 20260831102551 | 0 | 0.0 | 0.0 | 0.00 | 0.35 | 0.02 | 1016.1 | ||
| 20260831102049 | 0 | 0.0 | 0.0 | 0.00 | 0.35 | 0.02 | 1015.9 | ||
| 20260831101547 | 0 | 0.0 | 0.0 | 0.00 | 0.35 | 0.02 | 1016.0 | ||
| 20260831101047 | 0 | 0.0 | 0.0 | 0.00 | 0.35 | 0.02 | 1016.0 | ||
| 20260831100544 | 0 | 0.0 | 0.0 | 0.00 | 0.35 | 0.02 | 1015.8 | ||
| 20260831100046 | 0 | 0.0 | 0.0 | 0.00 | 0.35 | 0.02 | 1015.8 | ||
| 20260831095540 | 0 | 0.0 | 0.0 | 0.00 | 0.35 | 0.02 | 1015.8 | ||
| 20260831095039 | 0 | 0.0 | 0.0 | 0.00 | 0.35 | 0.02 | 1015.7 | ||
| 20260831094540 | 0 | 0.0 | 0.0 | 0.00 | 0.35 | 0.02 | 1015.8 | ||
| 20260831094036 | 0 | 0.0 | 0.0 | 0.00 | 0.35 | 0.02 | 1015.8 | ||
| 20260831093534 | 0 | 0.0 | 0.0 | 0.00 | 0.35 | 0.02 | 1015.8 | ||
| 20260831093032 | 0 | 0.0 | 0.0 | 0.00 | 0.35 | 0.02 | 1015.8 | ||
| 20260831092530 | 0 | 0.0 | 0.0 | 0.00 | 0.35 | 0.02 | 1015.7 | ||
| 20260831092029 | 0 | 0.0 | 0.0 | 0.00 | 0.35 | 0.02 | 1015.7 | ||
| 20260831091527 | 0 | 0.0 | 0.0 | 0.00 | 0.35 | 0.02 | 1015.7 | ||
| 20260831091026 | 0 | 0.0 | 0.0 | 0.00 | 0.35 | 0.02 | 1015.7 | ||
| 20260831090524 | 0 | 0.0 | 0.0 | 0.00 | 0.35 | 0.02 | 1015.7 | ||
| 20260831090023 | 0 | 0.0 | 0.0 | 0.00 | 0.35 | 0.02 | 1015.6 | ||
| 20260831085520 | 0 | 0.0 | 0.0 | 0.00 | 0.35 | 0.02 | 1015.6 | ||
| 20260831085022 | 0 | 0.0 | 0.0 | 0.01 | 0.35 | 0.02 | 1015.5 | ||
| 20260831084532 | 0 | 0.0 | 0.0 | 0.01 | 0.35 | 0.02 | 1015.4 | ||
| 20260831084015 | 0 | 0.0 | 0.0 | 0.01 | 0.35 | 0.02 | 1015.4 | ||
| 20260831083513 | 0 | 155 | 2.0 | 9.0 | 0.01 | 0.35 | 0.02 | 1015.3 | |
| 20260831083012 | 0 | 155 | 2.0 | 9.0 | 0.01 | 0.35 | 0.02 | 1015.4 | |
| 20260831082511 | 78 | 126 | 2.0 | 9.0 | 0.01 | 0.35 | 0.02 | 82 | 1015.4 |
| 20260831082009 | 77 | 91 | 3.0 | 9.0 | 0.01 | 0.35 | 0.02 | 82 | 1015.4 |
| 20260831081518 | 77 | 139 | 2.0 | 7.0 | 0.01 | 0.35 | 0.02 | 81 | 1015.4 |
| 20260831081109 | 77 | 117 | 0.0 | 4.0 | 0.01 | 0.35 | 0.02 | 81 | 1015.4 |
| 20260831080507 | 77 | 105 | 0.0 | 0.0 | 0.01 | 0.35 | 0.02 | 81 | 1015.5 |
| 20260831080005 | 77 | 134 | 0.0 | 0.0 | 0.01 | 0.35 | 0.02 | 81 | 1015.5 |
| 20260831075504 | 77 | 103 | 0.0 | 0.0 | 0.01 | 0.35 | 0.02 | 81 | 1015.5 |
| 20260831075003 | 77 | 119 | 0.0 | 0.0 | 0.00 | 0.34 | 0.01 | 80 | 1015.6 |
| 20260831074513 | 77 | 133 | 0.0 | 0.0 | 0.00 | 0.34 | 0.01 | 80 | 1015.7 |
| 20260831074004 | 77 | 142 | 0.0 | 5.0 | 0.00 | 0.34 | 0.01 | 80 | 1015.6 |
| 20260831073501 | 77 | 154 | 0.0 | 5.0 | 0.00 | 0.34 | 0.01 | 80 | 1015.7 |
| 20260831073211 | 77 | 122 | 1.0 | 6.0 | 0.00 | 0.34 | 0.01 | 80 | 1015.7 |
| 20260831072558 | 77 | 90 | 4.0 | 6.0 | 0.00 | 0.34 | 0.01 | 81 | 1015.7 |
| 20260831072057 | 77 | 114 | 0.0 | 6.0 | 0.00 | 0.34 | 0.01 | 81 | 1015.8 |
| 20260831071556 | 77 | 121 | 1.0 | 8.0 | 0.00 | 0.34 | 0.01 | 81 | 1015.8 |
| 20260831071055 | 77 | 111 | 2.0 | 8.0 | 0.00 | 0.34 | 0.01 | 81 | 1015.9 |
| 20260831070557 | 77 | 123 | 4.0 | 8.0 | 0.00 | 0.34 | 0.01 | 81 | 1015.9 |
| 20260831070054 | 77 | 65 | 3.0 | 8.0 | 0.00 | 0.34 | 0.01 | 81 | 1015.8 |
| 20260831065554 | 77 | 160 | 2.0 | 8.0 | 0.00 | 0.34 | 0.01 | 81 | 1015.9 |
| 20260831065053 | 77 | 123 | 4.0 | 10.0 | 0.00 | 0.34 | 0.01 | 81 | 1016.1 |
| 20260831064601 | 77 | 117 | 3.0 | 10.0 | 0.00 | 0.34 | 0.01 | 81 | 1016.0 |
| 20260831064055 | 77 | 96 | 3.0 | 8.0 | 0.00 | 0.34 | 0.01 | 81 | 1016.0 |
| 20260831063550 | 77 | 114 | 4.0 | 8.0 | 0.00 | 0.34 | 0.01 | 81 | 1015.9 |
| 20260831063051 | 78 | 150 | 2.0 | 9.0 | 0.00 | 0.34 | 0.01 | 81 | 1016.0 |
| 20260831062551 | 78 | 152 | 4.0 | 9.0 | 0.00 | 0.34 | 0.01 | 81 | 1016.0 |
| 20260831062046 | 78 | 117 | 3.0 | 10.0 | 0.00 | 0.34 | 0.01 | 81 | 1016.0 |
| 20260831061548 | 78 | 122 | 3.0 | 10.0 | 0.00 | 0.34 | 0.01 | 81 | 1016.0 |
| 20260831061044 | 78 | 159 | 2.0 | 7.0 | 0.00 | 0.34 | 0.01 | 81 | 1015.9 |
| 20260831060543 | 78 | 131 | 1.0 | 9.0 | 0.00 | 0.34 | 0.01 | 81 | 1015.9 |
| 20260831060058 | 78 | 129 | 3.0 | 11.0 | 0.00 | 0.34 | 0.01 | 81 | 1015.9 |
| 20260831055540 | 78 | 120 | 2.0 | 11.0 | 0.00 | 0.34 | 0.01 | 81 | 1016.0 |
| 20260831055040 | 78 | 160 | 4.0 | 9.0 | 0.00 | 0.34 | 0.01 | 81 | 1016.0 |
| 20260831054541 | 78 | 128 | 3.0 | 9.0 | 0.00 | 0.34 | 0.01 | 81 | 1016.0 |
| 20260831054037 | 78 | 113 | 4.0 | 9.0 | 0.00 | 0.34 | 0.01 | 81 | 1016.2 |
| 20260831053636 | 78 | 156 | 2.0 | 10.0 | 0.00 | 0.34 | 0.01 | 81 | 1016.2 |
| 20260831053037 | 79 | 146 | 4.0 | 9.0 | 0.00 | 0.34 | 0.01 | 81 | 1016.3 |
| 20260831052534 | 79 | 108 | 2.0 | 9.0 | 0.00 | 0.34 | 0.01 | 81 | 1016.3 |
| 20260831052033 | 79 | 150 | 3.0 | 9.0 | 0.00 | 0.34 | 0.01 | 80 | 1016.3 |
| 20260831051531 | 79 | 182 | 3.0 | 9.0 | 0.00 | 0.34 | 0.01 | 80 | 1016.4 |
| 20260831051031 | 79 | 108 | 3.0 | 8.0 | 0.00 | 0.34 | 0.01 | 80 | 1016.4 |
| 20260831050530 | 79 | 158 | 3.0 | 8.0 | 0.00 | 0.34 | 0.01 | 80 | 1016.4 |
| 20260831050041 | 79 | 246 | 4.0 | 13.0 | 0.01 | 0.34 | 0.01 | 80 | 1016.5 |
| 20260831045528 | 78 | 152 | 3.0 | 13.0 | 0.01 | 0.39 | 0.01 | 80 | 1016.6 |
| 20260831045026 | 79 | 169 | 5.0 | 12.0 | 0.01 | 0.39 | 0.01 | 80 | 1016.8 |
| 20260831044525 | 78 | 196 | 5.0 | 12.0 | 0.01 | 0.39 | 0.01 | 81 | 1016.8 |
| 20260831044023 | 78 | 155 | 3.0 | 11.0 | 0.01 | 0.39 | 0.01 | 81 | 1016.9 |
| 20260831043523 | 78 | 169 | 4.0 | 11.0 | 0.01 | 0.39 | 0.01 | 81 | 1017.0 |
| 20260831043025 | 78 | 193 | 3.0 | 8.0 | 0.01 | 0.39 | 0.01 | 81 | 1017.1 |
| 20260831042521 | 78 | 116 | 2.0 | 10.0 | 0.01 | 0.39 | 0.01 | 81 | 1017.0 |
| 20260831042021 | 78 | 142 | 3.0 | 10.0 | 0.01 | 0.39 | 0.01 | 81 | 1017.0 |
| 20260831041519 | 79 | 181 | 4.0 | 12.0 | 0.01 | 0.39 | 0.01 | 81 | 1017.0 |
| 20260831041017 | 79 | 180 | 5.0 | 12.0 | 0.01 | 0.39 | 0.01 | 81 | 1016.9 |
| 20260831040515 | 79 | 139 | 5.0 | 12.0 | 0.01 | 0.39 | 0.01 | 82 | 1016.9 |
| 20260831040038 | 79 | 148 | 3.0 | 8.0 | 0.00 | 0.38 | 0.00 | 82 | 1016.9 |
| 20260831035514 | 79 | 123 | 2.0 | 10.0 | 0.00 | 0.38 | 0.00 | 81 | 1016.8 |
| 20260831035013 | 78 | 146 | 2.0 | 10.0 | 0.00 | 0.38 | 0.00 | 82 | 1016.8 |
| 20260831034512 | 78 | 118 | 2.0 | 9.0 | 0.00 | 0.38 | 0.00 | 82 | 1016.9 |
| 20260831034012 | 78 | 100 | 3.0 | 8.0 | 0.00 | 0.38 | 0.00 | 82 | 1017.0 |
| 20260831033511 | 79 | 89 | 3.0 | 6.0 | 0.00 | 0.38 | 0.00 | 82 | 1017.0 |
| 20260831033017 | 79 | 125 | 2.0 | 6.0 | 0.00 | 0.38 | 0.00 | 81 | 1017.0 |
| 20260831032511 | 79 | 144 | 2.0 | 7.0 | 0.00 | 0.38 | 0.00 | 81 | 1017.0 |
| 20260831032009 | 78 | 123 | 3.0 | 7.0 | 0.00 | 0.38 | 0.00 | 82 | 1017.0 |
| 20260831031509 | 78 | 120 | 1.0 | 5.0 | 0.00 | 0.38 | 0.00 | 82 | 1017.2 |
| 20260831031010 | 78 | 145 | 1.0 | 8.0 | 0.00 | 0.38 | 0.00 | 82 | 1017.3 |
| 20260831030508 | 78 | 123 | 3.0 | 11.0 | 0.00 | 0.38 | 0.00 | 82 | 1017.3 |
| 20260831030021 | 78 | 109 | 4.0 | 11.0 | 0.00 | 0.38 | 0.00 | 82 | 1017.4 |
| 20260831025507 | 79 | 120 | 4.0 | 10.0 | 0.00 | 0.38 | 0.00 | 82 | 1017.3 |
| 20260831025006 | 79 | 142 | 3.0 | 7.0 | 0.00 | 0.38 | 0.00 | 82 | 1017.2 |
| 20260831024505 | 78 | 136 | 3.0 | 5.0 | 0.00 | 0.38 | 0.00 | 82 | 1017.1 |
| 20260831024005 | 78 | 97 | 2.0 | 5.0 | 0.00 | 0.38 | 0.00 | 82 | 1017.2 |
| 20260831023503 | 78 | 85 | 0.0 | 0.0 | 0.00 | 0.38 | 0.00 | 82 | 1017.2 |
| 20260831023003 | 78 | 133 | 0.0 | 0.0 | 0.00 | 0.38 | 0.00 | 82 | 1017.2 |
| 20260831022502 | 78 | 172 | 0.0 | 0.0 | 0.00 | 0.38 | 0.00 | 82 | 1017.2 |
| 20260831022001 | 78 | 131 | 0.0 | 0.0 | 0.00 | 0.38 | 0.00 | 82 | 1017.0 |
| 20260831021600 | 78 | 129 | 0.0 | 3.0 | 0.00 | 0.38 | 0.00 | 82 | 1017.1 |
| 20260831021059 | 78 | 110 | 0.0 | 3.0 | 0.00 | 0.38 | 0.00 | 82 | 1017.0 |
| 20260831020559 | 78 | 126 | 0.0 | 0.0 | 0.00 | 0.38 | 0.00 | 82 | 1017.0 |
| 20260831020059 | 78 | 143 | 0.0 | 4.0 | 0.00 | 0.38 | 0.00 | 82 | 1016.9 |
| 20260831015558 | 78 | 110 | 1.0 | 4.0 | 0.00 | 0.38 | 0.00 | 82 | 1017.0 |
| 20260831015056 | 78 | 207 | 0.0 | 0.0 | 0.00 | 0.38 | 0.00 | 82 | 1017.0 |